Burbank mapWeather Conditions for:
Santa Monica, Santa Monica Municipal Airport, CA (KSMO)

Elev: 174 ft; Latitude: 34.01583; Longitude: -118.45139

 Time Temp Relative
(PDT) (F) Humidity(%) Wind Direction, Speed (mph)
02 May 11:51 pm PDT 70 47 CALM
02 May 10:51 pm PDT 71 47 CALM
02 May 9:51 pm PDT 73 43 SSW 3
02 May 8:51 pm PDT 73 44 CALM
02 May 7:51 pm PDT 73 46 SSW 5
02 May 6:51 pm PDT 78 33 SSW 7
02 May 5:51 pm PDT 80 24 WSW 8
02 May 4:51 pm PDT 83 21 SW 7
02 May 3:51 pm PDT 85 17 SW 9
02 May 2:51 pm PDT 87 10 SW 9
02 May 1:51 pm PDT 86 12 WSW 8
02 May 12:51 pm PDT 85 15 WSW 8
02 May 11:51 am PDT 85 15 WSW 8
02 May 10:51 am PDT 89 14 SSW 7
02 May 9:51 am PDT 86 13 SE 3
02 May 8:51 am PDT 82 14 E 3
02 May 7:51 am PDT 76 25 ENE 3
02 May 6:51 am PDT 71 27 N 3
02 May 5:51 am PDT 66 38 NE 3
02 May 4:51 am PDT 68 36 NNE 5
02 May 3:51 am PDT 65 50 E 3
02 May 2:51 am PDT 70 39 CALM
02 May 1:51 am PDT 70 42 CALM
02 May 12:51 am PDT 71 39 NNE 3
01 May 11:51 pm PDT 71 41 CALM
01 May 10:51 pm PDT 71 44 CALM
01 May 9:51 pm PDT 72 44 CALM
01 May 8:51 pm PDT 72 44 CALM
01 May 7:51 pm PDT 73 41 CALM
01 May 6:51 pm PDT 74 36 SW 5
01 May 5:51 pm PDT 81 16 WSW 12
01 May 4:51 pm PDT 84 11 SW 13 Gusts 18
01 May 3:51 pm PDT 87 7 WSW 12 Gusts 22
01 May 2:51 pm PDT 87 7 WSW 10
01 May 1:51 pm PDT 88 7 WSW 14
01 May 12:51 pm PDT 90 6 W 8
01 May 11:51 am PDT 91 4 SW 9
01 May 10:51 am PDT 88 6 SW 7
01 May 9:51 am PDT 85 8 SSW 6
01 May 8:51 am PDT 83 9 SW 7
01 May 7:51 am PDT 81 12 CALM
01 May 6:51 am PDT 68 24 CALM
01 May 5:51 am PDT 66 24 NNE 5
01 May 4:51 am PDT 66 26 E 5
01 May 3:51 am PDT 67 21 E 3
01 May 2:51 am PDT 70 21 CALM
01 May 1:51 am PDT 71 20 NNE 3
01 May 12:51 am PDT 71 24 CALM
30 Apr 11:51 pm PDT 73 25 CALM
30 Apr 10:51 pm PDT 74 28 CALM
30 Apr 9:51 pm PDT 73 34 CALM
30 Apr 8:51 pm PDT 76 33 SSW 5
30 Apr 7:51 pm PDT 82 14 E 3
30 Apr 6:51 pm PDT 84 18 CALM
30 Apr 5:51 pm PDT 83 20 S 8
30 Apr 5:10 pm PDT 88 10 SSW 13
30 Apr 3:51 pm PDT 86 12 SSW 15
30 Apr 2:51 pm PDT 89 7 SW 14
30 Apr 1:51 pm PDT 86 10 WSW 12 Gusts 18
30 Apr 12:51 pm PDT 85 11 WSW 10
30 Apr 11:51 am PDT 83 14 SW 9
30 Apr 10:51 am PDT 86 10 S 10
30 Apr 9:51 am PDT 82 10 SSW 8
30 Apr 8:51 am PDT 82 12 SSW 7
30 Apr 7:51 am PDT 79 14 SW 5
30 Apr 6:51 am PDT 68 26 CALM
30 Apr 5:51 am PDT 66 27 CALM
30 Apr 4:51 am PDT 66 28 E 3
30 Apr 3:51 am PDT 68 24 CALM
30 Apr 2:51 am PDT 68 27 NNW 3
30 Apr 1:51 am PDT 70 20 NW 3
30 Apr 12:51 am PDT 74 15 NW 6
29 Apr 11:51 pm PDT 74 19 NNW 3
29 Apr 10:51 pm PDT 77 19 CALM
29 Apr 9:51 pm PDT 78 19 CALM
29 Apr 8:51 pm PDT 79 18 NE 5
29 Apr 7:51 pm PDT 81 15 CALM
29 Apr 6:51 pm PDT 84 13 CALM
29 Apr 5:51 pm PDT 84 12 WSW 6
29 Apr 4:51 pm PDT 86 11 WSW 8
29 Apr 3:51 pm PDT 86 11 WSW 9
29 Apr 2:51 pm PDT 86 14 SW 9
29 Apr 1:51 pm PDT 89 10 SW 13
29 Apr 12:51 pm PDT 90 9 SSW 13
29 Apr 12:24 pm PDT 90 10 S 12
29 Apr 11:51 am PDT 91 6 VRBL 7
29 Apr 10:51 am PDT 87 13 SW 7
29 Apr 9:51 am PDT 83 15 VRBL 3
29 Apr 8:51 am PDT 81 21 S 10
29 Apr 7:51 am PDT 72 44 NNE 5
29 Apr 6:51 am PDT 64 65 NNW 5
29 Apr 5:51 am PDT 62 70 ENE 3

http://www.wrh.noaa.gov/mesowest/getobext.php?wfo=lox&sid=KSMO&num=168&raw=0&dbn=m